Time;durP1;ratioP1;P1;durP2;ratioP2;P2;SDS_P1;SDS_P2;PMS_P1;PMS_P2;Temp;Humidity;BMP_temperature;BMP_pressure;BME280_temperature;BME280_humidity;BME280_pressure;Samples;Min_cycle;Max_cycle;Signal;HPM_P1;HPM_P2
2021/03/08 00:00:22;;;;;;;21.08;9.10;;;-2.70;99.90;;;;;;4186809;28;20710;-53
2021/03/08 00:02:23;;;;;;;21.17;9.10;;;-2.70;99.90;;;;;;4186271;28;20228;-53
2021/03/08 00:04:25;;;;;;;22.23;9.07;;;-2.70;99.90;;;;;;4187344;28;20218;-53
2021/03/08 00:06:27;;;;;;;18.75;8.43;;;-2.70;99.90;;;;;;4185544;28;20237;-53
2021/03/08 00:08:28;;;;;;;16.75;8.38;;;-2.70;99.90;;;;;;4185843;28;20311;-53
2021/03/08 00:10:29;;;;;;;19.42;8.80;;;-2.70;99.90;;;;;;4185910;28;20297;-53
2021/03/08 00:12:31;;;;;;;18.25;8.55;;;-2.70;99.90;;;;;;4186089;28;20274;-54
2021/03/08 00:14:33;;;;;;;16.83;8.35;;;-2.70;99.90;;;;;;4185927;28;20217;-53
2021/03/08 00:16:34;;;;;;;17.90;8.07;;;-2.70;99.90;;;;;;4186065;28;20554;-54
2021/03/08 00:18:35;;;;;;;20.25;7.97;;;-2.70;99.90;;;;;;4186982;28;20205;-53
2021/03/08 00:20:38;;;;;;;17.65;7.88;;;-2.70;99.90;;;;;;4185970;28;20210;-54
2021/03/08 00:22:39;;;;;;;17.60;7.47;;;-2.70;99.90;;;;;;4186645;28;20306;-53
2021/03/08 00:24:41;;;;;;;18.10;7.82;;;-2.70;99.90;;;;;;4185643;28;20215;-54
2021/03/08 00:26:42;;;;;;;19.50;8.20;;;-2.60;99.90;;;;;;4184575;28;20220;-54
2021/03/08 00:28:44;;;;;;;16.30;7.15;;;-2.70;99.90;;;;;;4185270;28;20231;-53
2021/03/08 00:30:45;;;;;;;17.17;8.18;;;-2.70;99.90;;;;;;4184934;28;22248;-53
2021/03/08 00:32:47;;;;;;;19.48;8.35;;;-2.70;99.90;;;;;;4185723;28;20225;-53
2021/03/08 00:34:48;;;;;;;17.63;8.10;;;-2.70;99.90;;;;;;4185837;28;20209;-53
2021/03/08 00:36:51;;;;;;;17.35;7.78;;;-2.60;99.90;;;;;;4185691;28;20299;-53
2021/03/08 00:38:52;;;;;;;14.90;7.43;;;-2.70;99.90;;;;;;4185481;28;20220;-53
2021/03/08 00:40:53;;;;;;;16.48;7.53;;;-2.60;99.90;;;;;;4186129;28;20222;-53
2021/03/08 00:42:55;;;;;;;18.98;7.90;;;-2.60;99.90;;;;;;4184970;28;20214;-53
2021/03/08 00:44:56;;;;;;;15.68;7.10;;;-2.50;99.90;;;;;;4185584;28;20253;-53
2021/03/08 00:46:58;;;;;;;17.50;7.13;;;-2.40;99.90;;;;;;4185184;28;20213;-53
2021/03/08 00:48:59;;;;;;;15.40;6.82;;;-2.40;99.90;;;;;;4185207;28;20660;-53
2021/03/08 00:51:00;;;;;;;11.32;5.88;;;-2.40;99.90;;;;;;4185316;28;20226;-53
2021/03/08 00:53:03;;;;;;;14.40;6.63;;;-2.30;99.90;;;;;;4185502;28;20291;-54
2021/03/08 00:55:05;;;;;;;14.05;6.10;;;-2.30;99.90;;;;;;4186533;28;20630;-53
2021/03/08 00:57:07;;;;;;;12.20;6.15;;;-2.30;99.90;;;;;;4186090;28;20594;-53
2021/03/08 00:59:08;;;;;;;12.88;6.35;;;-2.30;99.90;;;;;;4185297;28;20221;-53
2021/03/08 01:01:10;;;;;;;13.52;6.32;;;-2.20;99.90;;;;;;4183783;28;20210;-53
2021/03/08 01:03:11;;;;;;;16.02;6.28;;;-2.20;99.90;;;;;;4185680;28;20221;-53
2021/03/08 01:05:14;;;;;;;12.45;6.03;;;-2.10;99.90;;;;;;4185637;28;20210;-54
2021/03/08 01:07:16;;;;;;;12.20;6.38;;;-2.10;99.90;;;;;;4184114;28;20307;-55
2021/03/08 01:09:19;;;;;;;19.67;6.97;;;-2.10;99.90;;;;;;4186205;28;20260;-53
2021/03/08 01:11:20;;;;;;;14.73;6.90;;;-2.00;99.90;;;;;;4185200;28;20209;-51
2021/03/08 01:13:21;;;;;;;13.38;6.68;;;-2.00;99.90;;;;;;4185438;28;20210;-53
2021/03/08 01:15:23;;;;;;;14.40;6.70;;;-2.00;99.90;;;;;;4185093;28;20224;-53
2021/03/08 01:17:24;;;;;;;19.35;6.90;;;-2.00;99.90;;;;;;4184913;28;21283;-53
2021/03/08 01:19:26;;;;;;;13.38;6.57;;;-2.00;99.90;;;;;;4184696;28;20198;-53
2021/03/08 01:21:28;;;;;;;14.32;6.97;;;-2.10;99.90;;;;;;4184358;28;20218;-53
2021/03/08 01:23:29;;;;;;;13.38;6.35;;;-2.00;99.90;;;;;;4185107;28;20218;-53
2021/03/08 01:25:32;;;;;;;10.60;5.78;;;-2.00;99.90;;;;;;4185016;28;20225;-53
2021/03/08 01:27:33;;;;;;;12.98;5.95;;;-2.00;99.90;;;;;;4185097;28;20218;-53
2021/03/08 01:29:34;;;;;;;13.00;6.30;;;-2.00;99.90;;;;;;4183935;28;20234;-53
2021/03/08 01:31:35;;;;;;;12.10;5.75;;;-2.00;99.90;;;;;;4183850;28;20936;-53
2021/03/08 01:33:37;;;;;;;16.50;6.63;;;-1.90;99.90;;;;;;4184088;28;20214;-53
2021/03/08 01:35:40;;;;;;;12.45;6.20;;;-1.90;99.90;;;;;;4185599;28;20222;-53
2021/03/08 01:37:42;;;;;;;13.00;6.00;;;-1.90;99.90;;;;;;4184307;28;20283;-52
2021/03/08 01:39:43;;;;;;;11.88;5.32;;;-1.80;99.90;;;;;;4185621;28;20221;-53
2021/03/08 01:41:45;;;;;;;11.65;6.07;;;-1.80;99.90;;;;;;4184707;28;20593;-53
2021/03/08 01:43:46;;;;;;;11.13;5.10;;;-1.80;99.90;;;;;;4184303;28;21117;-53
2021/03/08 01:45:48;;;;;;;11.25;5.88;;;-1.80;99.90;;;;;;4183610;28;22111;-53
2021/03/08 01:47:50;;;;;;;11.38;5.55;;;-1.70;99.90;;;;;;4184802;28;20214;-53
2021/03/08 01:49:52;;;;;;;15.05;6.30;;;-1.70;99.90;;;;;;4184383;28;20234;-53
2021/03/08 01:51:53;;;;;;;13.65;6.35;;;-1.70;99.90;;;;;;4183716;28;20218;-53
2021/03/08 01:53:55;;;;;;;13.35;6.43;;;-1.70;99.90;;;;;;4184669;28;20225;-50
2021/03/08 01:55:56;;;;;;;13.77;6.40;;;-1.70;99.90;;;;;;4184572;28;20214;-52
2021/03/08 01:57:59;;;;;;;16.52;6.70;;;-1.70;99.90;;;;;;4183329;28;20225;-51
2021/03/08 02:00:00;;;;;;;11.93;5.90;;;-1.60;99.90;;;;;;4184705;28;20209;-51
2021/03/08 02:02:03;;;;;;;17.58;6.18;;;-1.60;99.90;;;;;;4184529;28;20218;-51
2021/03/08 02:04:05;;;;;;;12.30;6.03;;;-1.60;99.90;;;;;;4185260;28;20805;-51
2021/03/08 02:06:07;;;;;;;15.27;5.57;;;-1.50;99.90;;;;;;4184509;28;20468;-53
2021/03/08 02:08:11;;;;;;;13.43;5.97;;;-1.50;99.90;;;;;;4184374;28;20210;-51
2021/03/08 02:10:15;;;;;;;13.82;6.45;;;-1.50;99.90;;;;;;4185099;28;20233;-53
2021/03/08 02:12:28;;;;;;;12.35;6.05;;;-1.40;99.90;;;;;;4183479;28;20221;-51
2021/03/08 02:14:52;;;;;;;12.88;5.95;;;-1.40;99.90;;;;;;4184611;28;20545;-51
2021/03/08 02:16:57;;;;;;;12.85;5.35;;;-1.40;99.90;;;;;;4184384;28;20264;-51
2021/03/08 02:19:02;;;;;;;11.77;5.25;;;-1.40;99.90;;;;;;4182520;28;20229;-53
2021/03/08 02:21:24;;;;;;;12.32;5.40;;;-1.30;99.90;;;;;;4184167;28;20207;-53
2021/03/08 02:24:22;;;;;;;12.77;5.72;;;-1.30;99.90;;;;;;4184156;28;20219;-54
2021/03/08 02:26:41;;;;;;;13.25;6.43;;;-1.30;99.90;;;;;;4183576;28;20213;-51
2021/03/08 02:29:02;;;;;;;10.68;5.50;;;-1.40;99.90;;;;;;4182991;28;20255;-53
2021/03/08 02:31:07;;;;;;;11.65;6.00;;;-1.50;99.90;;;;;;4184036;28;20206;-51
2021/03/08 02:33:12;;;;;;;12.57;5.90;;;-1.60;99.90;;;;;;4184538;28;20701;-53
2021/03/08 02:35:17;;;;;;;11.77;6.07;;;-1.60;99.90;;;;;;4184609;28;20209;-51
2021/03/08 02:37:22;;;;;;;14.02;6.15;;;-1.70;99.90;;;;;;4184613;28;20690;-51
2021/03/08 02:39:29;;;;;;;12.85;5.80;;;-1.70;99.90;;;;;;4183046;28;20218;-51
2021/03/08 02:41:32;;;;;;;11.50;5.63;;;-1.80;99.90;;;;;;4183589;28;20300;-53
2021/03/08 02:43:38;;;;;;;13.25;6.25;;;-1.80;99.90;;;;;;4183095;28;20214;-53
2021/03/08 02:45:42;;;;;;;10.80;5.40;;;-1.90;99.90;;;;;;4184082;28;20235;-53
2021/03/08 02:47:47;;;;;;;14.00;5.75;;;-1.90;99.90;;;;;;4183155;28;20206;-53
2021/03/08 02:49:52;;;;;;;12.18;6.05;;;-1.90;99.90;;;;;;4183526;28;20218;-53
2021/03/08 02:51:57;;;;;;;18.50;6.25;;;-2.00;99.90;;;;;;4182933;28;20832;-53
2021/03/08 02:54:02;;;;;;;12.70;5.13;;;-2.00;99.90;;;;;;4183201;28;20233;-53
2021/03/08 02:56:08;;;;;;;10.43;5.32;;;-2.00;99.90;;;;;;4182795;28;20245;-53
2021/03/08 02:58:12;;;;;;;9.40;4.70;;;-2.00;99.90;;;;;;4182894;28;20214;-53
2021/03/08 03:00:15;;;;;;;11.23;5.50;;;-1.90;99.90;;;;;;4182613;28;20539;-53
2021/03/08 03:02:18;;;;;;;11.23;5.40;;;-1.90;99.90;;;;;;4183193;28;20641;-53
2021/03/08 03:04:22;;;;;;;14.02;6.07;;;-1.90;99.90;;;;;;4182230;28;20210;-53
2021/03/08 03:06:27;;;;;;;13.10;6.20;;;-1.80;99.90;;;;;;4183084;28;20238;-54
2021/03/08 03:08:29;;;;;;;10.30;5.45;;;-1.80;99.90;;;;;;4182869;28;20210;-54
2021/03/08 03:10:33;;;;;;;16.45;5.85;;;-1.80;99.90;;;;;;4184096;28;20244;-53
2021/03/08 03:12:35;;;;;;;12.85;5.68;;;-1.70;99.90;;;;;;4182933;28;20537;-54
2021/03/08 03:14:38;;;;;;;12.63;5.63;;;-1.70;99.90;;;;;;4183334;28;20214;-53
2021/03/08 03:16:41;;;;;;;14.05;6.07;;;-1.70;99.90;;;;;;4183654;28;21055;-51
2021/03/08 03:18:47;;;;;;;9.90;5.05;;;-1.60;99.90;;;;;;4182737;28;20244;-51
2021/03/08 03:20:50;;;;;;;11.02;5.72;;;-1.60;99.90;;;;;;4182117;28;20225;-52
2021/03/08 03:22:53;;;;;;;10.75;5.30;;;-1.60;99.90;;;;;;4182981;28;21044;-51
2021/03/08 03:24:57;;;;;;;13.13;5.72;;;-1.60;99.90;;;;;;4182865;28;20229;-51
2021/03/08 03:27:00;;;;;;;12.57;5.78;;;-1.50;99.90;;;;;;4182786;28;20692;-51
2021/03/08 03:29:03;;;;;;;14.27;6.30;;;-1.50;99.90;;;;;;4183193;28;20233;-51
2021/03/08 03:31:05;;;;;;;11.30;5.45;;;-1.50;99.90;;;;;;4184318;28;20210;-52
2021/03/08 03:33:08;;;;;;;16.85;6.30;;;-1.50;99.90;;;;;;4186009;28;20216;-51
2021/03/08 03:35:11;;;;;;;13.55;5.60;;;-1.40;99.90;;;;;;4186583;28;20217;-52
2021/03/08 03:37:14;;;;;;;11.50;5.30;;;-1.40;99.90;;;;;;4185970;28;20295;-51
2021/03/08 03:39:15;;;;;;;13.00;5.60;;;-1.40;99.90;;;;;;4186086;28;20460;-52
2021/03/08 03:41:17;;;;;;;13.47;6.20;;;-1.30;99.90;;;;;;4187571;28;20220;-52
2021/03/08 03:43:18;;;;;;;11.32;5.43;;;-1.30;99.90;;;;;;4187189;28;20773;-52
2021/03/08 03:45:21;;;;;;;12.33;5.47;;;-1.20;99.90;;;;;;4185744;28;20243;-51
2021/03/08 03:47:23;;;;;;;12.98;6.18;;;-1.20;99.90;;;;;;4187010;28;21140;-52
2021/03/08 03:49:24;;;;;;;11.20;5.67;;;-1.20;99.90;;;;;;4186186;28;20222;-57
2021/03/08 03:51:25;;;;;;;12.98;5.85;;;-1.20;99.90;;;;;;4185172;28;20470;-51
2021/03/08 03:53:28;;;;;;;10.40;5.32;;;-1.10;99.90;;;;;;4188073;28;20214;-52
2021/03/08 03:55:29;;;;;;;12.98;5.50;;;-1.10;99.90;;;;;;4186513;28;20305;-52
2021/03/08 03:57:38;;;;;;;12.48;5.70;;;-1.00;99.90;;;;;;4187092;28;20206;-52
2021/03/08 03:59:46;;;;;;;10.20;4.90;;;-1.00;99.90;;;;;;4186652;28;20201;-52
2021/03/08 04:01:54;;;;;;;11.82;5.72;;;-1.00;99.90;;;;;;4188077;28;20661;-51
2021/03/08 04:03:59;;;;;;;10.35;5.22;;;-1.00;99.90;;;;;;4186356;28;20212;-52
2021/03/08 04:06:02;;;;;;;12.83;5.77;;;-1.00;99.90;;;;;;4185749;28;20245;-52
2021/03/08 04:08:05;;;;;;;11.57;5.57;;;-1.00;99.90;;;;;;4185554;28;20491;-52
2021/03/08 04:10:11;;;;;;;10.27;5.20;;;-0.90;99.90;;;;;;4185948;28;20237;-54
2021/03/08 04:12:14;;;;;;;10.43;4.80;;;-0.90;99.90;;;;;;4185350;28;20468;-52
2021/03/08 04:14:18;;;;;;;12.65;5.85;;;-0.90;99.90;;;;;;4186276;28;20536;-51
2021/03/08 04:16:20;;;;;;;15.30;5.73;;;-0.90;99.90;;;;;;4184967;28;20210;-51
2021/03/08 04:18:23;;;;;;;12.03;5.57;;;-0.90;99.90;;;;;;4186360;28;20488;-52
2021/03/08 04:20:26;;;;;;;12.60;5.63;;;-0.90;99.90;;;;;;4185713;28;20723;-52
2021/03/08 04:22:31;;;;;;;10.50;5.17;;;-0.90;99.90;;;;;;4185926;28;20463;-51
2021/03/08 04:24:33;;;;;;;10.57;5.13;;;-0.80;99.90;;;;;;4186808;28;20506;-51
2021/03/08 04:26:39;;;;;;;12.37;4.90;;;-0.80;99.90;;;;;;4186371;28;20589;-52
2021/03/08 04:28:42;;;;;;;14.40;5.28;;;-0.80;99.90;;;;;;4187034;28;20480;-51
2021/03/08 04:30:45;;;;;;;12.80;5.53;;;-0.80;99.90;;;;;;4186006;28;20267;-51
2021/03/08 04:32:51;;;;;;;10.57;5.60;;;-0.80;99.90;;;;;;4184465;28;21735;-51
2021/03/08 04:34:53;;;;;;;12.13;5.32;;;-0.70;99.90;;;;;;4186338;28;20465;-51
2021/03/08 04:36:54;;;;;;;12.80;6.23;;;-0.70;99.90;;;;;;4185509;28;20226;-51
2021/03/08 04:38:57;;;;;;;10.80;5.40;;;-0.60;99.90;;;;;;4185238;28;20498;-51
2021/03/08 04:40:59;;;;;;;13.23;5.90;;;-0.60;99.90;;;;;;4185382;28;20464;-51
2021/03/08 04:43:03;;;;;;;12.13;5.73;;;-0.60;99.90;;;;;;4191081;28;20467;-54
2021/03/08 04:45:06;;;;;;;13.10;5.63;;;-0.60;99.90;;;;;;4191171;28;20482;-54
2021/03/08 04:47:09;;;;;;;11.02;5.65;;;-0.60;99.90;;;;;;4185983;28;20506;-51
2021/03/08 04:49:11;;;;;;;11.10;5.60;;;-0.60;99.90;;;;;;4186585;28;20234;-51
2021/03/08 04:51:13;;;;;;;10.27;5.40;;;-0.50;99.90;;;;;;4185572;28;20483;-51
2021/03/08 04:53:15;;;;;;;10.90;5.23;;;-0.50;99.90;;;;;;4186283;28;20508;-51
2021/03/08 04:55:17;;;;;;;10.57;5.43;;;-0.50;99.90;;;;;;4185390;28;20469;-53
2021/03/08 04:57:22;;;;;;;12.70;5.40;;;-0.50;99.90;;;;;;4185726;28;20473;-53
2021/03/08 04:59:24;;;;;;;12.13;6.00;;;-0.50;99.90;;;;;;4184371;28;20471;-53
2021/03/08 05:01:30;;;;;;;10.90;5.47;;;-0.40;99.90;;;;;;4184615;28;20484;-53
2021/03/08 05:03:35;;;;;;;12.38;5.95;;;-0.50;99.90;;;;;;4185682;28;20530;-53
2021/03/08 05:05:37;;;;;;;14.33;5.60;;;-0.50;99.90;;;;;;4185096;28;20224;-51
2021/03/08 05:07:41;;;;;;;13.77;5.40;;;-0.40;99.90;;;;;;4184771;28;21168;-53
2021/03/08 05:09:43;;;;;;;12.17;5.97;;;-0.40;99.90;;;;;;4184298;28;20483;-53
2021/03/08 05:11:46;;;;;;;11.83;5.63;;;-0.40;99.90;;;;;;4185278;28;21329;-53
2021/03/08 05:13:49;;;;;;;14.77;6.03;;;-0.30;99.90;;;;;;4184614;28;20885;-53
2021/03/08 05:15:53;;;;;;;12.20;5.77;;;-0.30;99.90;;;;;;4184855;28;20472;-53
2021/03/08 05:17:58;;;;;;;16.23;6.53;;;-0.30;99.90;;;;;;4185342;28;22266;-53
2021/03/08 05:20:01;;;;;;;10.77;5.60;;;-0.30;99.90;;;;;;4185030;28;20463;-53
2021/03/08 05:22:03;;;;;;;14.73;6.00;;;-0.30;99.90;;;;;;4186255;28;20499;-51
2021/03/08 05:24:06;;;;;;;12.87;6.27;;;-0.30;99.90;;;;;;4184757;28;20926;-53
2021/03/08 05:26:09;;;;;;;13.00;6.03;;;-0.30;99.90;;;;;;4184263;28;20479;-53
2021/03/08 05:28:12;;;;;;;13.87;6.00;;;-0.20;99.90;;;;;;4185723;28;20475;-53
2021/03/08 05:30:18;;;;;;;11.80;5.70;;;-0.20;99.90;;;;;;4184421;28;20572;-53
2021/03/08 05:32:24;;;;;;;11.63;5.50;;;-0.20;99.90;;;;;;4184724;28;22372;-53
2021/03/08 05:34:26;;;;;;;12.13;5.17;;;-0.20;99.90;;;;;;4185201;28;20546;-53
2021/03/08 05:36:28;;;;;;;11.90;5.30;;;-0.20;99.90;;;;;;4184494;28;21086;-51
2021/03/08 05:38:31;;;;;;;11.80;5.53;;;-0.20;99.90;;;;;;4185272;28;20465;-53
2021/03/08 05:40:40;;;;;;;11.30;5.60;;;-0.20;99.90;;;;;;4185135;28;20484;-53
2021/03/08 05:42:42;;;;;;;11.17;5.33;;;-0.20;99.90;;;;;;4185170;28;20465;-53
2021/03/08 05:44:47;;;;;;;11.67;5.33;;;-0.20;99.90;;;;;;4185436;28;20468;-53
2021/03/08 05:47:32;;;;;;;13.17;5.60;;;-0.20;99.90;;;;;;4185362;28;20464;-53
2021/03/08 05:50:01;;;;;;;13.50;5.17;;;-0.20;99.90;;;;;;4184822;28;20492;-53
2021/03/08 05:52:37;;;;;;;14.60;5.57;;;-0.20;99.90;;;;;;4184588;28;20463;-53
2021/03/08 05:55:15;;;;;;;12.53;4.90;;;-0.10;99.90;;;;;;4184294;28;20565;-55
2021/03/08 05:57:40;;;;;;;12.73;5.40;;;-0.10;99.90;;;;;;4186006;28;20478;-53
2021/03/08 05:59:53;;;;;;;14.47;5.97;;;0.00;99.90;;;;;;4183967;28;20468;-53
2021/03/08 06:02:06;;;;;;;15.63;6.57;;;0.00;99.90;;;;;;4184901;28;20484;-53
2021/03/08 06:04:27;;;;;;;14.53;6.23;;;0.00;99.90;;;;;;4184844;28;20467;-53
2021/03/08 06:07:02;;;;;;;14.67;6.27;;;0.00;99.90;;;;;;4184747;28;20503;-54
2021/03/08 06:09:24;;;;;;;13.87;6.00;;;0.10;99.90;;;;;;4184101;28;20476;-53
2021/03/08 06:11:31;;;;;;;13.37;6.30;;;0.10;99.90;;;;;;4186576;28;20472;-53
2021/03/08 06:13:41;;;;;;;14.23;5.63;;;0.10;99.90;;;;;;4184819;28;20472;-53
2021/03/08 06:15:50;;;;;;;18.37;7.50;;;0.10;99.90;;;;;;4184344;28;20468;-54
2021/03/08 06:17:53;;;;;;;14.03;5.93;;;0.20;99.90;;;;;;4185465;28;20466;-53
2021/03/08 06:19:57;;;;;;;13.33;6.13;;;0.20;99.90;;;;;;4183834;28;20479;-54
2021/03/08 06:22:00;;;;;;;13.80;6.30;;;0.30;99.90;;;;;;4185302;28;20529;-54
2021/03/08 06:24:07;;;;;;;14.93;6.80;;;0.30;99.90;;;;;;4185594;28;20492;-55
2021/03/08 06:26:10;;;;;;;11.53;6.17;;;0.30;99.90;;;;;;4183800;28;20473;-53
2021/03/08 06:28:11;;;;;;;15.53;6.93;;;0.40;99.90;;;;;;4184492;28;20471;-54
2021/03/08 06:30:15;;;;;;;17.37;7.90;;;0.40;99.90;;;;;;4184621;28;20491;-54
2021/03/08 06:32:16;;;;;;;15.83;7.10;;;0.40;99.90;;;;;;4183900;28;20460;-54
2021/03/08 06:34:18;;;;;;;17.10;7.53;;;0.50;99.90;;;;;;4185280;28;20486;-53
2021/03/08 06:36:20;;;;;;;20.03;7.90;;;0.60;99.90;;;;;;4183711;28;20489;-54
2021/03/08 06:38:23;;;;;;;15.60;6.83;;;0.60;99.90;;;;;;4184630;28;20463;-54
2021/03/08 06:40:24;;;;;;;20.47;7.87;;;0.60;99.90;;;;;;4184440;28;20467;-51
2021/03/08 06:42:26;;;;;;;17.53;7.47;;;0.70;99.90;;;;;;4182967;28;20480;-55
2021/03/08 06:44:27;;;;;;;18.43;7.10;;;0.80;99.90;;;;;;4184037;28;20475;-53
2021/03/08 06:46:29;;;;;;;15.27;7.60;;;0.80;99.90;;;;;;4183795;28;20484;-55
2021/03/08 06:48:31;;;;;;;15.93;7.27;;;0.80;99.90;;;;;;4183888;28;20983;-54
2021/03/08 06:50:32;;;;;;;18.53;7.80;;;0.90;99.90;;;;;;4183260;28;20497;-53
2021/03/08 06:52:41;;;;;;;18.40;8.10;;;0.90;99.90;;;;;;4182638;28;20491;-53
2021/03/08 06:54:44;;;;;;;16.03;7.07;;;1.00;99.90;;;;;;4183200;28;20545;-53
2021/03/08 06:56:46;;;;;;;16.27;7.00;;;1.00;99.90;;;;;;4183121;28;20466;-53
2021/03/08 06:59:04;;;;;;;15.40;6.87;;;1.10;99.90;;;;;;4182605;28;20480;-54
2021/03/08 07:01:12;;;;;;;15.60;7.17;;;1.10;99.90;;;;;;4183009;28;20480;-54
2021/03/08 07:03:34;;;;;;;19.00;7.30;;;1.20;99.90;;;;;;4183482;28;20458;-53
2021/03/08 07:05:36;;;;;;;15.03;6.93;;;1.30;99.90;;;;;;4182264;28;20461;-54
2021/03/08 07:07:53;;;;;;;14.90;6.83;;;1.30;99.90;;;;;;4180141;28;20526;-55
2021/03/08 07:09:54;;;;;;;14.60;7.13;;;1.40;99.90;;;;;;4180718;28;20893;-52
2021/03/08 07:12:07;;;;;;;15.23;6.77;;;1.50;99.90;;;;;;4180157;28;22384;-53
2021/03/08 07:14:18;;;;;;;16.02;6.82;;;1.50;99.90;;;;;;4182084;28;20454;-53
2021/03/08 07:16:19;;;;;;;16.67;9.30;;;1.60;99.90;;;;;;4180573;28;20556;-54
2021/03/08 07:18:23;;;;;;;19.27;7.83;;;1.70;99.90;;;;;;4174728;28;20219;-54
2021/03/08 07:22:39;;;;;;;16.63;7.23;;;1.90;99.90;;;;;;4282613;22;20788;-52
2021/03/08 07:24:57;;;;;;;18.93;8.37;;;2.00;99.90;;;;;;4161382;28;20533;-52
2021/03/08 07:26:58;;;;;;;13.60;7.40;;;2.00;99.90;;;;;;4163633;28;20507;-52
2021/03/08 07:29:11;;;;;;;18.48;9.20;;;2.10;99.90;;;;;;4161245;28;20428;-52
2021/03/08 07:31:34;;;;;;;16.97;7.83;;;2.30;99.90;;;;;;4163892;28;20381;-52
2021/03/08 07:33:35;;;;;;;15.30;6.97;;;2.30;99.90;;;;;;4163548;28;20472;-52
2021/03/08 07:35:39;;;;;;;15.55;8.23;;;2.30;99.90;;;;;;4161180;28;20449;-52
2021/03/08 07:37:46;;;;;;;17.73;6.87;;;2.40;99.90;;;;;;4163990;28;20229;-52
2021/03/08 07:39:54;;;;;;;17.57;7.27;;;2.40;99.90;;;;;;4164597;28;20486;-52
2021/03/08 07:41:58;;;;;;;16.37;7.60;;;2.50;99.90;;;;;;4163856;28;21101;-52
2021/03/08 07:44:07;;;;;;;17.03;7.23;;;2.50;99.90;;;;;;4163573;28;20482;-52
2021/03/08 07:46:27;;;;;;;16.73;7.70;;;2.50;99.90;;;;;;4162327;28;20586;-52
2021/03/08 07:48:28;;;;;;;18.03;7.73;;;2.50;99.90;;;;;;4162984;28;20480;-52
2021/03/08 07:50:30;;;;;;;21.27;8.30;;;2.50;99.90;;;;;;4162288;28;20491;-52
2021/03/08 07:52:33;;;;;;;18.70;7.97;;;2.50;99.90;;;;;;4162536;28;20468;-53
2021/03/08 07:54:51;;;;;;;17.77;7.40;;;2.50;99.90;;;;;;4161520;28;21181;-53
2021/03/08 07:56:54;;;;;;;16.60;7.63;;;2.50;99.90;;;;;;4163334;28;20474;-52
2021/03/08 07:58:57;;;;;;;17.25;8.20;;;2.60;99.90;;;;;;4161336;28;20456;-53
2021/03/08 08:01:02;;;;;;;19.27;10.43;;;2.60;99.90;;;;;;4162425;28;20482;-52
2021/03/08 08:03:04;;;;;;;20.35;10.70;;;2.70;99.90;;;;;;4162253;28;22367;-51
2021/03/08 08:05:06;;;;;;;18.98;10.65;;;2.80;99.90;;;;;;4161723;28;20457;-52
2021/03/08 08:07:09;;;;;;;20.67;9.93;;;2.90;99.90;;;;;;4164494;28;20229;-51
2021/03/08 08:09:11;;;;;;;21.10;9.40;;;3.00;99.90;;;;;;4164628;28;20505;-51
2021/03/08 08:11:16;;;;;;;25.73;10.03;;;3.00;99.90;;;;;;4166235;28;20522;-51
2021/03/08 08:13:18;;;;;;;17.10;8.33;;;3.00;99.90;;;;;;4163076;28;20483;-51
2021/03/08 08:15:23;;;;;;;18.73;8.63;;;3.00;99.90;;;;;;4162004;28;20468;-52
2021/03/08 08:17:25;;;;;;;20.77;9.03;;;3.10;99.90;;;;;;4161225;28;20468;-51
2021/03/08 08:19:27;;;;;;;17.63;8.60;;;3.10;99.90;;;;;;4163840;28;20470;-51
2021/03/08 08:21:32;;;;;;;17.63;9.73;;;3.20;99.90;;;;;;4163607;28;21981;-52
2021/03/08 08:23:39;;;;;;;20.65;10.50;;;3.30;99.90;;;;;;4164850;28;20907;-51
2021/03/08 08:25:41;;;;;;;22.47;9.63;;;3.50;99.40;;;;;;4165024;28;20226;-51
2021/03/08 08:27:43;;;;;;;22.70;11.73;;;3.50;98.80;;;;;;4163292;28;20463;-52
2021/03/08 08:29:46;;;;;;;22.97;10.60;;;3.60;98.50;;;;;;4165383;28;20238;-51
2021/03/08 08:31:59;;;;;;;24.63;11.05;;;3.60;98.70;;;;;;4165052;28;20465;-51
2021/03/08 08:34:20;;;;;;;19.73;10.82;;;3.60;98.60;;;;;;4162641;28;20452;-52
2021/03/08 08:36:24;;;;;;;19.97;10.03;;;3.80;98.50;;;;;;4166409;28;20265;-50
2021/03/08 08:38:26;;;;;;;22.93;10.13;;;3.90;98.20;;;;;;4164985;28;20479;-50
2021/03/08 08:40:27;;;;;;;21.43;10.20;;;3.80;98.30;;;;;;4165266;28;20959;-51
2021/03/08 08:42:29;;;;;;;18.93;9.37;;;3.90;98.20;;;;;;4164587;28;20530;-51
2021/03/08 08:44:30;;;;;;;22.57;9.80;;;4.00;98.20;;;;;;4164639;28;20473;-51
2021/03/08 08:46:32;;;;;;;20.88;9.48;;;4.10;98.10;;;;;;4166007;28;20457;-52
2021/03/08 08:48:34;;;;;;;23.17;11.43;;;4.20;97.90;;;;;;4164188;28;20457;-50
2021/03/08 08:50:47;;;;;;;21.77;10.85;;;4.40;97.60;;;;;;4163887;28;20529;-51
2021/03/08 08:52:51;;;;;;;20.80;10.70;;;4.50;97.30;;;;;;4164638;28;20462;-51
2021/03/08 08:54:54;;;;;;;20.57;9.70;;;4.60;97.20;;;;;;4165422;28;20223;-52
2021/03/08 08:56:58;;;;;;;22.13;10.43;;;4.60;96.90;;;;;;4164775;28;20472;-52
2021/03/08 08:59:17;;;;;;;25.90;10.37;;;4.60;96.80;;;;;;4165254;28;20473;-51
2021/03/08 09:01:24;;;;;;;23.77;11.00;;;4.60;96.20;;;;;;4165494;28;20473;-51
2021/03/08 09:03:51;;;;;;;22.95;12.30;;;4.60;96.20;;;;;;4164195;28;20559;-51
2021/03/08 09:05:52;;;;;;;23.77;12.70;;;4.90;96.20;;;;;;4165014;28;20455;-50
2021/03/08 09:08:23;;;;;;;20.37;10.00;;;5.00;95.80;;;;;;4167262;28;20227;-50
2021/03/08 09:10:34;;;;;;;22.67;10.33;;;5.10;95.80;;;;;;4163729;28;20579;-50
2021/03/08 09:12:38;;;;;;;21.53;10.13;;;5.10;95.50;;;;;;4165626;28;20547;-50
2021/03/08 09:14:41;;;;;;;20.37;10.20;;;5.10;95.20;;;;;;4164725;28;20469;-50
2021/03/08 09:16:43;;;;;;;23.57;10.93;;;5.10;95.10;;;;;;4163039;28;20474;-51
2021/03/08 09:18:44;;;;;;;26.20;11.07;;;5.10;94.70;;;;;;4163078;28;20458;-51
2021/03/08 09:20:47;;;;;;;24.60;11.33;;;5.10;95.10;;;;;;4164606;28;20465;-51
2021/03/08 09:22:50;;;;;;;28.83;12.13;;;5.20;95.50;;;;;;4163403;28;20498;-51
2021/03/08 09:24:53;;;;;;;25.70;11.43;;;5.20;95.00;;;;;;4164841;28;20906;-51
2021/03/08 09:26:54;;;;;;;27.00;12.40;;;5.30;95.10;;;;;;4164256;28;21122;-51
2021/03/08 09:28:56;;;;;;;25.33;11.00;;;5.40;95.00;;;;;;4164200;28;20477;-51
2021/03/08 09:30:57;;;;;;;25.20;11.70;;;5.50;94.80;;;;;;4163269;28;20492;-52
2021/03/08 09:33:01;;;;;;;28.10;11.30;;;5.50;94.80;;;;;;4164270;28;20474;-51
2021/03/08 09:35:03;;;;;;;30.07;13.27;;;5.60;94.80;;;;;;4165440;28;20863;-52
2021/03/08 09:37:06;;;;;;;34.80;14.90;;;5.60;94.60;;;;;;4165585;28;20908;-51
2021/03/08 09:39:07;;;;;;;34.20;16.75;;;5.60;94.50;;;;;;4164757;28;20992;-52
2021/03/08 09:41:09;;;;;;;34.90;16.60;;;5.70;94.20;;;;;;4164107;28;20464;-52
2021/03/08 09:43:21;;;;;;;34.23;15.07;;;5.70;94.20;;;;;;4163958;28;20212;-51
2021/03/08 09:45:26;;;;;;;34.07;14.77;;;5.70;94.50;;;;;;4163385;28;20478;-51
2021/03/08 09:47:38;;;;;;;31.13;13.90;;;5.70;94.50;;;;;;4164395;28;20470;-52
2021/03/08 09:49:49;;;;;;;33.35;16.33;;;5.80;94.40;;;;;;4162954;28;20892;-51
2021/03/08 09:51:51;;;;;;;34.43;14.63;;;6.00;94.30;;;;;;4163667;28;20669;-50
2021/03/08 09:53:55;;;;;;;30.23;13.77;;;6.10;93.80;;;;;;4167873;28;20466;-51
2021/03/08 09:56:03;;;;;;;31.30;14.00;;;6.20;93.70;;;;;;4163764;28;21285;-51
2021/03/08 09:58:13;;;;;;;34.57;14.30;;;6.20;93.60;;;;;;4164071;28;20464;-51
2021/03/08 10:00:16;;;;;;;38.70;14.17;;;6.20;93.70;;;;;;4164061;28;20584;-51
2021/03/08 10:02:18;;;;;;;30.97;14.03;;;6.30;93.70;;;;;;4163738;28;20497;-52
2021/03/08 10:04:19;;;;;;;34.88;15.60;;;6.40;93.10;;;;;;4163907;28;20461;-51
2021/03/08 10:06:25;;;;;;;28.50;12.73;;;6.50;92.90;;;;;;4168143;28;20216;-52
2021/03/08 10:08:30;;;;;;;29.07;13.20;;;6.60;92.60;;;;;;4163826;28;21039;-51
2021/03/08 10:10:38;;;;;;;27.70;12.83;;;6.70;92.20;;;;;;4163215;28;20585;-51
2021/03/08 10:12:39;;;;;;;31.27;13.30;;;6.80;91.80;;;;;;4163747;28;20961;-51
2021/03/08 10:14:41;;;;;;;29.07;13.63;;;6.80;91.90;;;;;;4162435;28;20469;-52
2021/03/08 10:16:42;;;;;;;32.23;13.23;;;7.00;91.30;;;;;;4164715;28;20468;-52
2021/03/08 10:18:43;;;;;;;28.33;13.67;;;7.10;91.30;;;;;;4164929;28;20489;-50
2021/03/08 10:20:54;;;;;;;30.33;13.60;;;7.20;90.60;;;;;;4164331;28;20491;-51
2021/03/08 10:22:56;;;;;;;30.63;12.90;;;7.20;90.70;;;;;;4162201;28;20500;-52
2021/03/08 10:24:58;;;;;;;28.87;12.90;;;7.40;90.70;;;;;;4163909;28;20476;-52
2021/03/08 10:27:00;;;;;;;30.95;13.93;;;7.60;90.60;;;;;;4162899;28;20523;-52
2021/03/08 10:29:02;;;;;;;25.90;12.23;;;7.90;90.00;;;;;;4163732;28;20760;-52
2021/03/08 10:31:04;;;;;;;31.17;15.30;;;8.10;89.50;;;;;;4164215;28;20457;-53
2021/03/08 10:33:07;;;;;;;30.83;14.40;;;8.50;87.80;;;;;;4163661;28;20462;-53
2021/03/08 10:35:10;;;;;;;27.57;13.93;;;8.60;84.90;;;;;;4163304;28;20231;-53
2021/03/08 10:37:16;;;;;;;31.60;14.40;;;8.70;83.10;;;;;;4164907;28;22174;-53
2021/03/08 10:39:20;;;;;;;31.40;13.90;;;8.70;82.60;;;;;;4163660;28;20600;-53
2021/03/08 10:41:22;;;;;;;29.10;13.17;;;8.80;82.00;;;;;;4163224;28;22150;-52
2021/03/08 10:43:28;;;;;;;30.93;14.67;;;9.00;80.00;;;;;;4163836;28;20225;-51
2021/03/08 10:45:29;;;;;;;37.50;16.80;;;8.90;78.80;;;;;;4165014;28;20277;-51